createdAt,value
2018-09-09T00:02:18.250Z,6.63
2018-09-09T00:04:45.520Z,6.30
2018-09-09T00:07:12.785Z,5.37
2018-09-09T00:09:45.925Z,5.60
2018-09-09T00:12:13.185Z,5.90
2018-09-09T00:14:40.453Z,5.10
2018-09-09T00:17:07.889Z,5.40
2018-09-09T00:19:35.173Z,5.40
2018-09-09T00:22:02.445Z,5.20
2018-09-09T00:24:29.809Z,5.03
2018-09-09T00:26:57.085Z,5.20
2018-09-09T00:29:24.370Z,5.73
2018-09-09T00:31:51.638Z,4.97
2018-09-09T00:34:18.898Z,5.27
2018-09-09T00:36:46.165Z,5.80
2018-09-09T00:39:13.446Z,6.60
2018-09-09T00:41:40.705Z,5.77
2018-09-09T00:44:07.972Z,5.00
2018-09-09T00:46:35.226Z,6.23
2018-09-09T00:49:08.226Z,5.00
2018-09-09T00:51:41.153Z,7.03
2018-09-09T00:54:08.417Z,6.40
2018-09-09T00:56:35.642Z,6.00
2018-09-09T00:59:02.874Z,4.60
2018-09-09T01:01:30.161Z,5.40
2018-09-09T01:03:57.391Z,5.10
2018-09-09T01:06:24.587Z,5.53
2018-09-09T01:08:51.805Z,5.70
2018-09-09T01:11:18.993Z,6.47
2018-09-09T01:13:46.216Z,5.77
2018-09-09T01:16:13.409Z,5.93
2018-09-09T01:18:40.649Z,5.80
2018-09-09T01:21:07.845Z,4.87
2018-09-09T01:23:35.041Z,5.47
2018-09-09T01:26:02.345Z,5.77
2018-09-09T01:28:29.542Z,5.70
2018-09-09T01:30:56.741Z,5.23
2018-09-09T01:33:23.931Z,5.47
2018-09-09T01:35:51.141Z,4.70
2018-09-09T01:38:18.338Z,5.20
2018-09-09T01:40:45.773Z,5.40
2018-09-09T01:43:12.965Z,5.00
2018-09-09T01:45:40.169Z,4.50
2018-09-09T01:48:07.389Z,5.30
2018-09-09T01:50:34.581Z,4.93
2018-09-09T01:53:02.186Z,3.90
2018-09-09T01:55:29.386Z,4.67
2018-09-09T01:57:56.637Z,4.63
2018-09-09T02:00:24.061Z,4.17
2018-09-09T02:02:51.313Z,4.40
2018-09-09T02:05:18.599Z,4.40
2018-09-09T02:07:45.853Z,5.00
2018-09-09T02:10:13.138Z,4.50
2018-09-09T02:12:40.389Z,4.80
2018-09-09T02:15:07.677Z,4.10
2018-09-09T02:17:34.941Z,4.40
2018-09-09T02:20:02.224Z,5.17
2018-09-09T02:22:29.485Z,4.23
2018-09-09T02:24:56.758Z,3.90
2018-09-09T02:27:23.987Z,5.43
2018-09-09T02:29:51.205Z,3.90
2018-09-09T02:32:18.461Z,4.10
2018-09-09T02:34:45.633Z,4.00
2018-09-09T02:37:12.837Z,3.77
2018-09-09T02:39:40.113Z,4.20
2018-09-09T02:42:07.322Z,4.10
2018-09-09T02:44:34.554Z,4.03
2018-09-09T02:47:01.818Z,4.20
2018-09-09T02:49:29.028Z,4.57
2018-09-09T02:51:56.225Z,3.97
2018-09-09T02:54:23.498Z,4.00
2018-09-09T02:56:50.726Z,4.97
2018-09-09T02:59:17.945Z,3.83
2018-09-09T03:01:45.162Z,4.00
2018-09-09T03:04:12.377Z,4.27
2018-09-09T03:06:39.597Z,3.80
2018-09-09T03:09:06.801Z,4.07
2018-09-09T03:11:34.005Z,3.67
2018-09-09T03:14:01.210Z,4.27
2018-09-09T03:16:28.425Z,3.87
2018-09-09T03:18:55.622Z,4.13
2018-09-09T03:21:22.829Z,4.57
2018-09-09T03:23:50.025Z,4.20
2018-09-09T03:26:17.234Z,4.07
2018-09-09T03:28:44.480Z,4.27
2018-09-09T03:31:11.645Z,5.07
2018-09-09T03:33:38.821Z,4.27
2018-09-09T03:36:06.078Z,4.33
2018-09-09T03:38:33.285Z,4.10
2018-09-09T03:41:00.497Z,4.03
2018-09-09T03:43:27.770Z,5.50
2018-09-09T03:45:54.993Z,4.57
2018-09-09T03:48:22.224Z,4.43
2018-09-09T03:50:49.432Z,3.73
2018-09-09T03:53:16.642Z,5.07
2018-09-09T03:55:43.853Z,4.13
2018-09-09T03:58:11.102Z,3.80
2018-09-09T04:00:38.326Z,4.07
2018-09-09T04:03:05.869Z,4.50
2018-09-09T04:05:33.073Z,4.53
2018-09-09T04:08:00.269Z,4.47
2018-09-09T04:10:27.482Z,4.90
2018-09-09T04:12:54.690Z,4.43
2018-09-09T04:15:21.909Z,5.10
2018-09-09T04:17:49.101Z,4.07
2018-09-09T04:20:16.337Z,4.37
2018-09-09T04:22:43.529Z,4.53
2018-09-09T04:25:10.774Z,5.60
2018-09-09T04:27:37.997Z,3.73
2018-09-09T04:30:05.293Z,4.13
2018-09-09T04:32:32.497Z,3.90
2018-09-09T04:34:59.685Z,4.47
2018-09-09T04:37:26.893Z,4.30
2018-09-09T04:39:54.093Z,4.60
2018-09-09T04:42:21.294Z,3.93
2018-09-09T04:44:48.497Z,5.00
2018-09-09T04:47:15.717Z,4.80
2018-09-09T04:49:42.917Z,5.00
2018-09-09T04:52:10.124Z,4.63
2018-09-09T04:54:37.330Z,4.90
2018-09-09T04:57:04.713Z,4.30
2018-09-09T04:59:31.994Z,4.93
2018-09-09T05:01:59.270Z,5.00
2018-09-09T05:04:26.517Z,4.23
2018-09-09T05:06:53.786Z,4.77
2018-09-09T05:09:21.025Z,4.40
2018-09-09T05:11:48.290Z,4.63
2018-09-09T05:14:15.543Z,5.03
2018-09-09T05:16:42.812Z,5.07
2018-09-09T05:19:10.065Z,4.67
2018-09-09T05:21:37.333Z,5.03
2018-09-09T05:24:04.597Z,5.27
2018-09-09T05:26:31.936Z,5.10
2018-09-09T05:28:59.213Z,5.13
2018-09-09T05:31:26.509Z,5.93
2018-09-09T05:33:53.774Z,5.47
2018-09-09T05:36:21.038Z,5.13
2018-09-09T05:38:48.309Z,5.50
2018-09-09T05:41:15.581Z,5.30
2018-09-09T05:43:42.893Z,5.70
2018-09-09T05:46:10.157Z,5.50
2018-09-09T05:48:37.446Z,5.60
2018-09-09T05:51:05.545Z,5.33
2018-09-09T05:53:32.797Z,5.33
2018-09-09T05:56:00.078Z,5.30
2018-09-09T05:58:27.457Z,5.57
2018-09-09T06:00:54.745Z,5.47
2018-09-09T06:03:22.002Z,5.97
2018-09-09T06:05:49.281Z,6.20
2018-09-09T06:08:16.582Z,5.67
2018-09-09T06:10:44.341Z,5.60
2018-09-09T06:13:11.649Z,5.80
2018-09-09T06:15:38.925Z,5.80
2018-09-09T06:18:06.209Z,5.70
2018-09-09T06:20:33.544Z,5.27
2018-09-09T06:23:00.848Z,5.20
2018-09-09T06:25:28.108Z,6.03
2018-09-09T06:27:55.366Z,6.50
2018-09-09T06:30:22.617Z,6.17
2018-09-09T06:32:49.884Z,6.37
2018-09-09T06:35:17.160Z,6.70
2018-09-09T06:37:44.441Z,6.60
2018-09-09T06:40:11.698Z,6.10
2018-09-09T06:42:39.006Z,7.40
2018-09-09T06:45:06.317Z,6.90
2018-09-09T06:47:33.686Z,7.87
2018-09-09T06:50:00.945Z,7.50
2018-09-09T06:52:28.349Z,6.10
2018-09-09T06:54:55.671Z,6.90
2018-09-09T06:57:22.961Z,7.77
2018-09-09T06:59:50.229Z,7.57
2018-09-09T07:02:17.538Z,7.40
2018-09-09T07:04:44.851Z,7.17
2018-09-09T07:07:12.130Z,6.63
2018-09-09T07:09:39.413Z,7.03
2018-09-09T07:12:07.018Z,7.07
2018-09-09T07:14:34.330Z,6.90
2018-09-09T07:17:01.666Z,7.20
2018-09-09T07:19:28.949Z,6.93
2018-09-09T07:21:56.315Z,7.20
2018-09-09T07:24:23.591Z,7.33
2018-09-09T07:26:50.858Z,6.90
2018-09-09T07:29:18.114Z,7.13
2018-09-09T07:31:45.413Z,6.47
2018-09-09T07:34:12.722Z,7.13
2018-09-09T07:36:39.997Z,6.43
2018-09-09T07:39:07.471Z,9.13
2018-09-09T07:41:34.777Z,7.23
2018-09-09T07:44:02.080Z,7.30
2018-09-09T07:46:29.516Z,6.80
2018-09-09T07:48:56.745Z,7.17
2018-09-09T07:51:23.997Z,6.10
2018-09-09T07:53:51.309Z,8.53
2018-09-09T07:56:18.594Z,6.27
2018-09-09T07:58:46.129Z,6.30
2018-09-09T08:01:13.437Z,7.63
2018-09-09T08:03:40.835Z,6.63
2018-09-09T08:06:08.166Z,6.57
2018-09-09T08:08:35.533Z,6.67
2018-09-09T08:11:02.937Z,7.97
2018-09-09T08:13:30.283Z,6.93
2018-09-09T08:15:57.589Z,5.67
2018-09-09T08:18:24.920Z,6.90
2018-09-09T08:20:52.313Z,6.10
2018-09-09T08:23:19.597Z,6.30
2018-09-09T08:25:46.845Z,6.30
2018-09-09T08:28:14.134Z,6.47
2018-09-09T08:30:41.399Z,6.63
2018-09-09T08:33:08.786Z,7.47
2018-09-09T08:35:36.174Z,5.53
2018-09-09T08:38:03.478Z,6.03
2018-09-09T08:40:30.739Z,6.00
2018-09-09T08:42:58.014Z,6.07
2018-09-09T08:45:25.355Z,6.47
2018-09-09T08:47:52.573Z,6.50
2018-09-09T08:50:19.853Z,5.70
2018-09-09T08:52:47.117Z,5.43
2018-09-09T08:55:14.381Z,5.47
2018-09-09T08:57:41.677Z,5.20
2018-09-09T09:00:09.058Z,5.13
2018-09-09T09:02:36.491Z,4.87
2018-09-09T09:05:03.924Z,5.17
2018-09-09T09:07:31.204Z,5.00
2018-09-09T09:09:58.473Z,4.87
2018-09-09T09:12:25.817Z,4.63
2018-09-09T09:14:53.106Z,4.80
2018-09-09T09:17:20.397Z,4.80
2018-09-09T09:19:47.661Z,4.47
2018-09-09T09:22:14.949Z,4.00
2018-09-09T09:24:42.230Z,4.80
2018-09-09T09:27:09.527Z,5.23
2018-09-09T09:29:42.477Z,3.80
2018-09-09T09:32:09.764Z,4.40
2018-09-09T09:34:37.041Z,4.40
2018-09-09T09:37:04.357Z,4.60
2018-09-09T09:39:31.699Z,4.37
2018-09-09T09:41:58.973Z,4.60
2018-09-09T09:44:26.305Z,3.50
2018-09-09T09:46:53.649Z,3.93
2018-09-09T09:49:20.893Z,3.40
2018-09-09T09:51:48.133Z,3.70
2018-09-09T09:54:15.404Z,3.83
2018-09-09T09:56:42.613Z,3.00
2018-09-09T09:59:09.827Z,2.40
2018-09-09T10:01:37.025Z,2.87
2018-09-09T10:04:04.285Z,3.13
2018-09-09T10:06:31.470Z,2.50
2018-09-09T10:08:58.799Z,2.80
2018-09-09T10:11:26.009Z,3.80
2018-09-09T10:13:53.217Z,2.93
2018-09-09T10:16:20.410Z,2.87
2018-09-09T10:18:47.620Z,2.97
2018-09-09T10:21:14.833Z,3.50
2018-09-09T10:23:42.083Z,2.60
2018-09-09T10:26:09.262Z,2.77
2018-09-09T10:28:36.472Z,2.93
2018-09-09T10:31:03.705Z,3.00
2018-09-09T10:33:31.020Z,2.60
2018-09-09T10:35:58.229Z,2.57
2018-09-09T10:38:25.435Z,2.73
2018-09-09T10:40:52.683Z,3.17
2018-09-09T10:43:19.846Z,3.00
2018-09-09T10:45:47.034Z,2.60
2018-09-09T10:48:14.237Z,2.60
2018-09-09T10:50:41.426Z,2.50
2018-09-09T10:53:08.669Z,2.10
2018-09-09T10:55:35.861Z,2.63
2018-09-09T10:58:03.097Z,3.17
2018-09-09T11:00:30.311Z,2.30
2018-09-09T11:02:57.538Z,2.57
2018-09-09T11:05:24.737Z,3.53
2018-09-09T11:07:51.941Z,2.27
2018-09-09T11:10:19.146Z,2.77
2018-09-09T11:12:46.356Z,3.00
2018-09-09T11:15:13.550Z,2.47
2018-09-09T11:17:40.761Z,2.03
2018-09-09T11:20:08.015Z,2.80
2018-09-09T11:22:35.229Z,2.43
2018-09-09T11:25:02.465Z,2.70
2018-09-09T11:27:29.673Z,2.23
2018-09-09T11:29:56.893Z,2.53
2018-09-09T11:32:24.101Z,2.10
2018-09-09T11:34:51.313Z,2.17
2018-09-09T11:37:18.545Z,2.80
2018-09-09T11:39:45.773Z,2.20
2018-09-09T11:42:12.969Z,2.67
2018-09-09T11:44:40.202Z,2.00
2018-09-09T11:47:07.437Z,2.70
2018-09-09T11:49:34.725Z,2.37
2018-09-09T11:52:01.926Z,2.43
2018-09-09T11:54:29.144Z,2.23
2018-09-09T11:56:56.428Z,2.20
2018-09-09T11:59:23.642Z,2.40
2018-09-09T12:01:50.894Z,2.47
2018-09-09T12:04:18.091Z,2.30
2018-09-09T12:06:45.329Z,2.40
2018-09-09T12:09:12.537Z,2.30
2018-09-09T12:11:39.745Z,2.57
2018-09-09T12:14:07.389Z,2.90
2018-09-09T12:16:34.778Z,2.23
2018-09-09T12:19:02.745Z,2.60
2018-09-09T12:21:29.971Z,3.03
2018-09-09T12:23:57.171Z,2.43
2018-09-09T12:26:24.408Z,2.50
2018-09-09T12:28:51.609Z,2.23
2018-09-09T12:31:18.818Z,2.40
2018-09-09T12:33:46.041Z,2.70
2018-09-09T12:36:13.282Z,2.33
2018-09-09T12:38:40.485Z,2.40
2018-09-09T12:41:07.781Z,2.57
2018-09-09T12:44:44.221Z,2.57
2018-09-09T12:47:17.214Z,2.23
2018-09-09T12:49:44.298Z,2.53
2018-09-09T12:52:11.513Z,2.20
2018-09-09T12:54:38.713Z,2.60
2018-09-09T12:57:06.009Z,2.47
2018-09-09T12:59:33.305Z,2.90
2018-09-09T13:02:00.589Z,2.60
2018-09-09T13:04:27.905Z,2.50
2018-09-09T13:06:55.153Z,2.17
2018-09-09T13:09:22.369Z,2.70
2018-09-09T13:11:49.591Z,2.33
2018-09-09T13:14:16.805Z,2.53
2018-09-09T13:16:44.041Z,2.80
2018-09-09T13:19:11.242Z,2.50
2018-09-09T13:21:38.546Z,2.73
2018-09-09T13:24:05.789Z,2.30
2018-09-09T13:26:32.997Z,2.00
2018-09-09T13:29:00.257Z,2.53
2018-09-09T13:31:27.507Z,2.80
2018-09-09T13:33:54.801Z,2.10
2018-09-09T13:36:22.014Z,2.70
2018-09-09T13:38:50.077Z,2.30
2018-09-09T13:41:17.313Z,2.60
2018-09-09T13:43:44.554Z,2.00
2018-09-09T13:46:11.777Z,2.00
2018-09-09T13:48:39.056Z,2.30
2018-09-09T13:51:06.277Z,1.87
2018-09-09T13:53:33.522Z,2.60
2018-09-09T13:56:00.728Z,2.33
2018-09-09T13:58:28.026Z,1.93
2018-09-09T14:00:55.301Z,1.77
2018-09-09T14:03:22.574Z,2.00
2018-09-09T14:05:49.896Z,2.00
2018-09-09T14:08:17.194Z,2.10
2018-09-09T14:10:44.459Z,2.53
2018-09-09T14:13:11.733Z,2.23
2018-09-09T14:15:39.001Z,2.67
2018-09-09T14:18:06.520Z,2.30
2018-09-09T14:20:33.781Z,1.90
2018-09-09T14:23:01.061Z,2.50
2018-09-09T14:25:28.333Z,3.20
2018-09-09T14:27:55.662Z,2.90
2018-09-09T14:30:22.919Z,2.70
2018-09-09T14:32:50.397Z,2.73
2018-09-09T14:35:17.689Z,3.17
2018-09-09T14:37:44.949Z,2.80
2018-09-09T14:40:12.219Z,1.83
2018-09-09T14:42:39.485Z,2.60
2018-09-09T14:45:06.786Z,2.10
2018-09-09T14:47:34.133Z,2.53
2018-09-09T14:50:01.425Z,1.90
2018-09-09T14:52:28.797Z,2.20
2018-09-09T14:54:56.065Z,2.00
2018-09-09T14:57:23.269Z,2.43
2018-09-09T14:59:50.532Z,1.93
2018-09-09T15:02:17.794Z,3.73
2018-09-09T15:04:45.047Z,2.50
2018-09-09T15:07:12.349Z,3.00
2018-09-09T15:09:39.570Z,2.60
2018-09-09T15:12:06.790Z,2.17
2018-09-09T15:14:34.138Z,2.20
2018-09-09T15:17:01.418Z,2.90
2018-09-09T15:19:28.725Z,3.17
2018-09-09T15:21:55.982Z,2.80
2018-09-09T15:24:23.314Z,2.47
2018-09-09T15:26:50.616Z,2.83
2018-09-09T15:29:17.854Z,2.47
2018-09-09T15:31:45.105Z,2.40
2018-09-09T15:34:12.382Z,2.50
2018-09-09T15:36:39.569Z,2.83
2018-09-09T15:39:07.076Z,2.43
2018-09-09T15:41:34.285Z,2.43
2018-09-09T15:44:01.965Z,1.90
2018-09-09T15:46:29.221Z,2.63
2018-09-09T15:48:56.458Z,3.10
2018-09-09T15:51:23.764Z,2.60
2018-09-09T15:53:50.973Z,2.37
2018-09-09T15:56:18.209Z,3.20
2018-09-09T15:58:45.416Z,2.70
2018-09-09T16:01:12.672Z,3.33
2018-09-09T16:03:39.939Z,2.67
2018-09-09T16:06:07.168Z,2.57
2018-09-09T16:08:34.376Z,1.80
2018-09-09T16:11:01.597Z,2.40
2018-09-09T16:13:28.841Z,2.73
2018-09-09T16:15:56.057Z,2.10
2018-09-09T16:18:23.253Z,1.90
2018-09-09T16:20:50.466Z,1.90
2018-09-09T16:23:17.692Z,1.70
2018-09-09T16:25:44.890Z,2.20
2018-09-09T16:28:12.101Z,2.00
2018-09-09T16:30:39.349Z,1.87
2018-09-09T16:33:06.549Z,1.90
2018-09-09T16:35:33.785Z,2.03
2018-09-09T16:38:01.003Z,1.70
2018-09-09T16:40:28.211Z,2.20
2018-09-09T16:42:55.429Z,2.20
2018-09-09T16:45:22.634Z,2.40
2018-09-09T16:47:49.851Z,2.07
2018-09-09T16:50:17.061Z,1.97
2018-09-09T16:52:44.332Z,2.40
2018-09-09T16:55:11.507Z,2.23
2018-09-09T16:57:38.829Z,2.37
2018-09-09T17:00:06.471Z,2.40
2018-09-09T17:02:33.746Z,2.30
2018-09-09T17:05:01.010Z,2.50
2018-09-09T17:07:28.389Z,3.07
2018-09-09T17:09:55.781Z,2.60
2018-09-09T17:12:23.068Z,3.60
2018-09-09T17:14:50.413Z,2.60
2018-09-09T17:17:17.681Z,2.57
2018-09-09T17:19:44.956Z,2.50
2018-09-09T17:22:12.242Z,2.80
2018-09-09T17:24:39.499Z,2.47
2018-09-09T17:27:06.867Z,2.10
2018-09-09T17:29:34.118Z,3.17
2018-09-09T17:32:01.389Z,3.30
2018-09-09T17:34:28.795Z,2.70
2018-09-09T17:36:56.092Z,2.50
2018-09-09T17:39:23.485Z,3.40
2018-09-09T17:41:50.765Z,3.03
2018-09-09T17:44:18.022Z,2.40
2018-09-09T17:46:45.390Z,3.00
2018-09-09T17:49:12.658Z,2.60
2018-09-09T17:51:40.047Z,4.10
2018-09-09T17:54:07.362Z,3.80
2018-09-09T17:56:34.681Z,3.33
2018-09-09T17:59:02.057Z,3.77
2018-09-09T18:01:29.409Z,3.60
2018-09-09T18:03:56.697Z,3.60
2018-09-09T18:06:23.973Z,3.13
2018-09-09T18:08:51.261Z,3.30
2018-09-09T18:11:18.549Z,4.27
2018-09-09T18:13:45.865Z,3.70
2018-09-09T18:16:13.145Z,6.60
2018-09-09T18:18:40.516Z,8.57
2018-09-09T18:21:07.794Z,7.30
2018-09-09T18:23:35.073Z,6.07
2018-09-09T18:26:02.365Z,4.93
2018-09-09T18:28:29.666Z,3.60
2018-09-09T18:30:57.055Z,3.47
2018-09-09T18:33:24.321Z,3.90
2018-09-09T18:35:51.577Z,4.40
2018-09-09T18:38:18.866Z,3.80
2018-09-09T18:40:46.190Z,4.10
2018-09-09T18:43:13.472Z,4.23
2018-09-09T18:45:40.744Z,3.67
2018-09-09T18:48:08.224Z,3.07
2018-09-09T18:50:35.593Z,4.93
2018-09-09T18:53:02.985Z,4.50
2018-09-09T18:55:30.272Z,5.27
2018-09-09T18:57:57.630Z,4.70
2018-09-09T19:00:24.925Z,4.23
2018-09-09T19:02:52.205Z,3.83
2018-09-09T19:05:19.497Z,4.73
2018-09-09T19:07:46.821Z,4.17
2018-09-09T19:10:14.117Z,4.20
2018-09-09T19:12:41.473Z,4.00
2018-09-09T19:15:08.762Z,3.77
2018-09-09T19:17:36.013Z,4.77
2018-09-09T19:20:03.354Z,3.57
2018-09-09T19:22:30.645Z,4.33
2018-09-09T19:24:57.957Z,3.80
2018-09-09T19:27:25.226Z,3.87
2018-09-09T19:29:52.634Z,4.47
2018-09-09T19:32:19.989Z,3.50
2018-09-09T19:34:47.273Z,3.53
2018-09-09T19:37:14.613Z,3.53
2018-09-09T19:39:41.885Z,3.53
2018-09-09T19:42:09.158Z,3.90
2018-09-09T19:44:36.539Z,3.57
2018-09-09T19:47:03.935Z,4.27
2018-09-09T19:49:31.241Z,3.50
2018-09-09T19:51:58.642Z,4.57
2018-09-09T19:54:26.357Z,4.30
2018-09-09T19:56:53.750Z,4.03
2018-09-09T19:59:21.006Z,3.80
2018-09-09T20:01:49.218Z,3.20
2018-09-09T20:04:16.453Z,3.87
2018-09-09T20:06:43.845Z,3.50
2018-09-09T20:09:11.136Z,3.83
2018-09-09T20:12:41.697Z,4.70
2018-09-09T20:15:09.186Z,4.13
2018-09-09T20:17:36.409Z,4.27
2018-09-09T20:20:03.785Z,4.23
2018-09-09T20:22:30.993Z,4.03
2018-09-09T20:24:58.241Z,3.60
2018-09-09T20:27:25.453Z,3.63
2018-09-09T20:29:52.642Z,3.17
2018-09-09T20:32:19.856Z,3.63
2018-09-09T20:34:47.061Z,3.73
2018-09-09T20:37:14.284Z,3.37
2018-09-09T20:39:41.490Z,2.80
2018-09-09T20:42:08.728Z,3.30
2018-09-09T20:44:35.989Z,3.00
2018-09-09T20:47:03.466Z,2.90
2018-09-09T20:49:30.753Z,4.27
2018-09-09T20:51:57.951Z,3.73
2018-09-09T20:54:25.189Z,3.43
2018-09-09T20:56:52.493Z,3.90
2018-09-09T20:59:19.721Z,4.27
2018-09-09T21:01:47.067Z,3.57
2018-09-09T21:04:14.469Z,3.30
2018-09-09T21:06:41.693Z,3.03
2018-09-09T21:09:11.033Z,3.23
2018-09-09T21:11:38.299Z,3.50
2018-09-09T21:14:05.749Z,3.30
2018-09-09T21:16:33.924Z,2.90
2018-09-09T21:19:02.125Z,3.37
2018-09-09T21:21:30.614Z,3.50
2018-09-09T21:23:58.457Z,3.30
2018-09-09T21:26:25.988Z,3.30
2018-09-09T21:28:53.359Z,3.40
2018-09-09T21:31:20.703Z,3.10
2018-09-09T21:33:47.921Z,3.03
2018-09-09T21:36:15.481Z,3.20
2018-09-09T21:38:42.697Z,2.93
2018-09-09T21:41:09.901Z,4.00
2018-09-09T21:43:37.281Z,3.70
2018-09-09T21:46:04.508Z,3.53
2018-09-09T21:48:31.764Z,2.67
2018-09-09T21:50:59.263Z,3.23
2018-09-09T21:53:26.505Z,3.97
2018-09-09T21:55:53.917Z,3.23
2018-09-09T21:58:21.565Z,4.53
2018-09-09T22:00:54.572Z,3.87
2018-09-09T22:03:21.821Z,3.47
2018-09-09T22:05:49.237Z,2.77
2018-09-09T22:08:16.711Z,2.80
2018-09-09T22:10:43.969Z,3.33
2018-09-09T22:13:11.380Z,3.23
2018-09-09T22:15:38.638Z,3.03
2018-09-09T22:18:05.890Z,3.03
2018-09-09T22:20:33.174Z,3.33
2018-09-09T22:23:00.381Z,3.27
2018-09-09T22:25:27.621Z,3.43
2018-09-09T22:27:54.833Z,4.13
2018-09-09T22:30:22.106Z,3.67
2018-09-09T22:32:49.325Z,3.27
2018-09-09T22:35:16.549Z,3.50
2018-09-09T22:37:43.761Z,3.27
2018-09-09T22:40:10.965Z,2.67
2018-09-09T22:42:38.164Z,3.50
2018-09-09T22:45:05.393Z,3.10
2018-09-09T22:47:32.601Z,3.73
2018-09-09T22:49:59.825Z,4.17
2018-09-09T22:52:27.056Z,3.37
2018-09-09T22:54:54.306Z,3.37
2018-09-09T22:57:21.601Z,3.87
2018-09-09T22:59:48.902Z,3.27
2018-09-09T23:02:16.168Z,4.07
2018-09-09T23:04:43.541Z,3.50
2018-09-09T23:07:10.806Z,3.83
2018-09-09T23:09:38.065Z,3.93
2018-09-09T23:12:05.313Z,4.00
2018-09-09T23:14:32.613Z,3.80
2018-09-09T23:16:59.884Z,3.37
2018-09-09T23:19:27.145Z,3.50
2018-09-09T23:21:54.417Z,2.97
2018-09-09T23:24:21.677Z,3.33
2018-09-09T23:26:48.949Z,3.80
2018-09-09T23:29:16.285Z,3.20
2018-09-09T23:31:43.549Z,3.30
2018-09-09T23:34:10.817Z,3.00
2018-09-09T23:36:38.090Z,3.27
2018-09-09T23:39:07.853Z,3.63
2018-09-09T23:41:35.157Z,3.77
2018-09-09T23:44:02.433Z,3.80
2018-09-09T23:46:29.721Z,3.20
2018-09-09T23:48:56.982Z,3.40
2018-09-09T23:51:24.273Z,4.40
2018-09-09T23:53:51.545Z,3.67
2018-09-09T23:56:18.831Z,3.77
2018-09-09T23:58:46.093Z,3.13
